Time;durP1;ratioP1;P1;durP2;ratioP2;P2;SDS_P1;SDS_P2;PMS_P1;PMS_P2;Temp;Humidity;BMP_temperature;BMP_pressure;BME280_temperature;BME280_humidity;BME280_pressure;Samples;Min_cycle;Max_cycle;Signal;HPM_P1;HPM_P2
2022/02/05 00:01:31;;;;;;;9.35;4.55;;;;;;;;;;4986925;28;20073;-70
2022/02/05 00:04:03;;;;;;;8.55;3.88;;;;;;;;;;4987827;28;20022;-71
2022/02/05 00:06:34;;;;;;;7.38;4.32;;;;;;;;;;4983371;28;20052;-70
2022/02/05 00:11:53;;;;;;;6.43;3.17;;;;;;;;;;4983997;28;20504;-72
2022/02/05 00:14:41;;;;;;;6.35;3.25;;;;;;;;;;4982515;28;20105;-72
2022/02/05 00:20:24;;;;;;;10.23;4.15;;;;;;;;;;4981013;28;20106;-71
2022/02/05 00:38:56;;;;;;;7.65;3.30;;;;;;;;;;4978452;28;20094;-72
2022/02/05 00:41:29;;;;;;;8.93;3.17;;;;;;;;;;4996568;28;20041;-71
2022/02/05 00:44:01;;;;;;;4.78;3.17;;;;;;;;;;4978524;28;20382;-72
2022/02/05 00:46:32;;;;;;;5.72;3.33;;;;;;;;;;4981474;28;20022;-72
2022/02/05 00:48:58;;;;;;;10.05;3.58;;;;;;;;;;4980472;28;20035;-71
2022/02/05 00:51:30;;;;;;;5.95;3.47;;;;;;;;;;4989432;28;20037;-71
2022/02/05 00:54:07;;;;;;;8.82;4.90;;;;;;;;;;4982810;28;20034;-71
2022/02/05 00:59:08;;;;;;;11.10;3.30;;;;;;;;;;4979021;28;20030;-71
2022/02/05 01:01:34;;;;;;;9.40;4.72;;;;;;;;;;4988476;28;20077;-71
2022/02/05 01:04:00;;;;;;;5.28;2.67;;;;;;;;;;4984623;28;20088;-72
2022/02/05 01:06:26;;;;;;;9.95;4.07;;;;;;;;;;4980163;28;20023;-72
2022/02/05 01:08:53;;;;;;;8.27;3.22;;;;;;;;;;4988875;28;20030;-71
2022/02/05 01:11:19;;;;;;;6.25;2.70;;;;;;;;;;4987956;28;20053;-71
2022/02/05 01:13:45;;;;;;;2.75;2.17;;;;;;;;;;4982410;28;20037;-72
2022/02/05 01:18:56;;;;;;;8.57;3.05;;;;;;;;;;4981310;28;20173;-71
2022/02/05 01:21:36;;;;;;;4.70;2.40;;;;;;;;;;4984079;28;20307;-71
2022/02/05 01:24:06;;;;;;;7.40;3.25;;;;;;;;;;4994416;28;20033;-72
2022/02/05 01:26:38;;;;;;;8.20;3.67;;;;;;;;;;4985500;28;20061;-72
2022/02/05 01:29:16;;;;;;;5.90;2.67;;;;;;;;;;4990439;28;20361;-71
2022/02/05 01:31:48;;;;;;;7.65;2.72;;;;;;;;;;4990675;28;20551;-71
2022/02/05 01:34:35;;;;;;;7.15;2.85;;;;;;;;;;4990757;28;20053;-71
2022/02/05 01:59:12;;;;;;;8.07;3.10;;;;;;;;;;4986275;28;20045;-70
2022/02/05 02:07:13;;;;;;;5.10;2.60;;;;;;;;;;4982753;28;20044;-71
2022/02/05 02:10:15;;;;;;;10.43;3.20;;;;;;;;;;4983656;28;20480;-71
2022/02/05 02:12:38;;;;;;;6.95;3.60;;;;;;;;;;4985701;28;20047;-73
2022/02/05 02:15:14;;;;;;;8.18;3.60;;;;;;;;;;4974765;28;20027;-71
2022/02/05 02:18:14;;;;;;;6.45;3.20;;;;;;;;;;4980227;28;20422;-72
2022/02/05 02:21:02;;;;;;;4.35;3.40;;;;;;;;;;4980558;28;20038;-72
2022/02/05 02:31:20;;;;;;;9.40;3.10;;;;;;;;;;4987287;28;20046;-72
2022/02/05 02:33:50;;;;;;;5.35;2.78;;;;;;;;;;4983940;28;20062;-72
2022/02/05 02:37:01;;;;;;;7.70;3.08;;;;;;;;;;4984566;28;20038;-72
2022/02/05 02:39:20;;;;;;;10.10;3.60;;;;;;;;;;4981458;28;20037;-71
2022/02/05 02:42:09;;;;;;;12.55;3.75;;;;;;;;;;4982165;28;20022;-72
2022/02/05 02:44:35;;;;;;;6.03;3.15;;;;;;;;;;4976529;28;20393;-72
2022/02/05 02:47:01;;;;;;;7.43;3.03;;;;;;;;;;4976081;28;20023;-71
2022/02/05 02:49:55;;;;;;;6.18;2.70;;;;;;;;;;4997460;28;20113;-71
2022/02/05 02:57:59;;;;;;;5.60;3.10;;;;;;;;;;4984720;28;20049;-71
2022/02/05 03:00:26;;;;;;;10.43;2.90;;;;;;;;;;4989425;28;20022;-71
2022/02/05 03:02:52;;;;;;;7.53;2.70;;;;;;;;;;4981911;28;20023;-71
2022/02/05 03:05:19;;;;;;;10.05;2.83;;;;;;;;;;4989583;28;20510;-71
2022/02/05 03:07:45;;;;;;;6.20;3.47;;;;;;;;;;4984529;28;20061;-71
2022/02/05 03:10:11;;;;;;;7.55;2.90;;;;;;;;;;4981593;28;20046;-70
2022/02/05 03:12:37;;;;;;;8.57;3.00;;;;;;;;;;4979616;28;20022;-71
2022/02/05 03:15:05;;;;;;;8.40;3.10;;;;;;;;;;4985458;28;20126;-71
2022/02/05 03:17:41;;;;;;;4.93;2.42;;;;;;;;;;4986747;28;20022;-71
2022/02/05 03:20:07;;;;;;;8.60;3.38;;;;;;;;;;4987714;28;20188;-71
2022/02/05 03:22:33;;;;;;;4.25;2.80;;;;;;;;;;4991579;28;20481;-71
2022/02/05 03:25:00;;;;;;;6.38;2.83;;;;;;;;;;4983105;28;20054;-71
2022/02/05 03:27:26;;;;;;;8.48;3.25;;;;;;;;;;4986577;28;20058;-70
2022/02/05 03:29:53;;;;;;;6.22;3.20;;;;;;;;;;4987964;28;20022;-71
2022/02/05 03:32:21;;;;;;;7.45;2.70;;;;;;;;;;4988535;28;20246;-71
2022/02/05 03:34:47;;;;;;;7.40;3.22;;;;;;;;;;4990081;28;20433;-71
2022/02/05 03:37:14;;;;;;;6.78;2.80;;;;;;;;;;4981970;28;20114;-71
2022/02/05 03:39:40;;;;;;;5.97;2.85;;;;;;;;;;4983844;28;20085;-72
2022/02/05 03:42:06;;;;;;;4.53;2.78;;;;;;;;;;4980354;28;20061;-71
2022/02/05 03:44:33;;;;;;;5.82;2.80;;;;;;;;;;4988953;28;20457;-71
2022/02/05 03:46:59;;;;;;;6.22;3.70;;;;;;;;;;4982092;28;20579;-71
2022/02/05 03:49:25;;;;;;;3.20;2.60;;;;;;;;;;4984641;28;20432;-72
2022/02/05 03:51:52;;;;;;;8.18;3.22;;;;;;;;;;4982071;28;20022;-71
2022/02/05 03:54:21;;;;;;;4.72;2.97;;;;;;;;;;4984212;28;20120;-71
2022/02/05 03:56:48;;;;;;;10.52;3.67;;;;;;;;;;4982278;28;20034;-72
2022/02/05 03:59:14;;;;;;;7.03;2.67;;;;;;;;;;4987971;28;20045;-72
2022/02/05 04:01:40;;;;;;;8.02;3.38;;;;;;;;;;4994315;28;20018;-71
2022/02/05 04:04:06;;;;;;;6.78;2.80;;;;;;;;;;4983149;28;20048;-72
2022/02/05 04:06:32;;;;;;;7.88;2.42;;;;;;;;;;4991930;28;20575;-71
2022/02/05 04:09:04;;;;;;;9.10;2.95;;;;;;;;;;4989637;28;20031;-71
2022/02/05 04:17:01;;;;;;;11.30;3.00;;;;;;;;;;4983273;28;20049;-72
2022/02/05 04:19:27;;;;;;;7.63;2.95;;;;;;;;;;4984137;28;20035;-72
2022/02/05 04:21:54;;;;;;;5.22;2.90;;;;;;;;;;4983119;28;20031;-72
2022/02/05 04:24:20;;;;;;;8.30;2.90;;;;;;;;;;4987618;28;20175;-72
2022/02/05 04:26:47;;;;;;;6.55;2.47;;;;;;;;;;4983882;28;20101;-71
2022/02/05 04:29:13;;;;;;;5.68;2.53;;;;;;;;;;5002779;28;20448;-72
2022/02/05 04:31:40;;;;;;;10.77;2.80;;;;;;;;;;4981941;28;20031;-71
2022/02/05 04:34:06;;;;;;;6.07;3.25;;;;;;;;;;4991074;28;20045;-72
2022/02/05 04:36:33;;;;;;;11.77;3.20;;;;;;;;;;4983810;28;20500;-71
2022/02/05 04:39:05;;;;;;;5.95;2.28;;;;;;;;;;4987020;28;20026;-72
2022/02/05 04:41:48;;;;;;;6.20;2.53;;;;;;;;;;4984595;28;20396;-71
2022/02/05 04:47:26;;;;;;;5.60;2.92;;;;;;;;;;4986260;28;20089;-72
2022/02/05 05:05:59;;;;;;;4.82;2.90;;;;;;;;;;4981312;28;20118;-71
2022/02/05 05:08:37;;;;;;;6.55;3.15;;;;;;;;;;4984523;28;20030;-71
2022/02/05 05:19:28;;;;;;;11.10;2.78;;;;;;;;;;4983166;28;20064;-71
2022/02/05 05:21:59;;;;;;;4.45;2.25;;;;;;;;;;4982332;28;20022;-71
2022/02/05 05:24:26;;;;;;;4.97;2.40;;;;;;;;;;4980528;28;20027;-71
2022/02/05 05:26:52;;;;;;;8.63;2.95;;;;;;;;;;4984614;28;20041;-71
2022/02/05 05:29:18;;;;;;;9.75;2.53;;;;;;;;;;4982860;28;20397;-71
2022/02/05 05:31:45;;;;;;;9.82;2.80;;;;;;;;;;4987467;28;20031;-71
2022/02/05 05:34:11;;;;;;;8.70;3.05;;;;;;;;;;4990276;28;20042;-71
2022/02/05 05:36:37;;;;;;;9.80;2.70;;;;;;;;;;5012387;28;20599;-71
2022/02/05 05:39:04;;;;;;;6.32;2.50;;;;;;;;;;4989409;28;20046;-72
2022/02/05 05:41:31;;;;;;;6.28;2.25;;;;;;;;;;4985714;28;20396;-71
2022/02/05 05:46:45;;;;;;;7.50;2.58;;;;;;;;;;4985671;28;20034;-71
2022/02/05 05:51:41;;;;;;;4.82;2.83;;;;;;;;;;4982329;28;20124;-72
2022/02/05 05:54:07;;;;;;;4.22;2.20;;;;;;;;;;4975479;28;20491;-71
2022/02/05 05:56:34;;;;;;;5.70;2.55;;;;;;;;;;4985801;28;20042;-71
2022/02/05 05:59:03;;;;;;;8.15;2.03;;;;;;;;;;4980418;28;20393;-71
2022/02/05 06:01:29;;;;;;;3.30;2.75;;;;;;;;;;4983837;28;20022;-71
2022/02/05 06:03:55;;;;;;;4.90;2.47;;;;;;;;;;4994616;28;20442;-71
2022/02/05 06:06:21;;;;;;;6.50;2.55;;;;;;;;;;4985600;28;20033;-71
2022/02/05 06:08:47;;;;;;;7.20;2.60;;;;;;;;;;4988334;28;20057;-71
2022/02/05 06:11:14;;;;;;;3.95;1.90;;;;;;;;;;4991320;28;20054;-71
2022/02/05 06:13:40;;;;;;;4.70;2.40;;;;;;;;;;4984529;28;20023;-71
2022/02/05 06:16:10;;;;;;;6.53;2.20;;;;;;;;;;4984091;28;20053;-71
2022/02/05 06:18:37;;;;;;;6.15;2.30;;;;;;;;;;4977403;28;20031;-71
2022/02/05 06:21:03;;;;;;;5.93;2.17;;;;;;;;;;4982250;28;20058;-71
2022/02/05 06:23:29;;;;;;;3.42;1.80;;;;;;;;;;4981612;28;20404;-71
2022/02/05 06:25:55;;;;;;;7.32;2.47;;;;;;;;;;4983469;28;20022;-71
2022/02/05 06:28:21;;;;;;;7.05;2.00;;;;;;;;;;4989493;28;20034;-70
2022/02/05 06:30:48;;;;;;;5.22;2.75;;;;;;;;;;4983328;28;20516;-71
2022/02/05 06:33:14;;;;;;;5.47;2.30;;;;;;;;;;4986747;28;20557;-72
2022/02/05 06:35:40;;;;;;;5.90;2.05;;;;;;;;;;4987717;28;20030;-71
2022/02/05 06:38:06;;;;;;;8.93;2.70;;;;;;;;;;5001193;28;20046;-71
2022/02/05 06:40:32;;;;;;;6.43;2.20;;;;;;;;;;4993186;28;20030;-71
2022/02/05 06:42:58;;;;;;;7.63;2.92;;;;;;;;;;4981706;28;20030;-70
2022/02/05 06:45:25;;;;;;;5.43;2.50;;;;;;;;;;4980270;28;20030;-71
2022/02/05 06:47:51;;;;;;;6.75;2.40;;;;;;;;;;4977426;28;20035;-72
2022/02/05 06:50:17;;;;;;;9.05;2.25;;;;;;;;;;4995782;28;20049;-71
2022/02/05 06:52:44;;;;;;;6.47;2.58;;;;;;;;;;5003234;28;20456;-71
2022/02/05 06:55:10;;;;;;;7.40;2.35;;;;;;;;;;4991446;28;20027;-71
2022/02/05 06:57:37;;;;;;;7.03;2.55;;;;;;;;;;4982544;28;20030;-72
2022/02/05 07:00:07;;;;;;;11.10;2.60;;;;;;;;;;4986415;28;20092;-71
2022/02/05 07:02:33;;;;;;;6.72;2.97;;;;;;;;;;4988477;28;20164;-71
2022/02/05 07:04:59;;;;;;;6.18;2.53;;;;;;;;;;4988486;28;20033;-71
2022/02/05 07:07:26;;;;;;;5.68;2.00;;;;;;;;;;4986777;28;20026;-71
2022/02/05 07:09:52;;;;;;;9.88;2.40;;;;;;;;;;4988886;28;20018;-71
2022/02/05 07:12:18;;;;;;;8.20;2.55;;;;;;;;;;4989496;28;20045;-71
2022/02/05 07:14:58;;;;;;;3.75;2.05;;;;;;;;;;4985769;28;20061;-72
2022/02/05 07:20:04;;;;;;;8.43;2.20;;;;;;;;;;4990102;28;20320;-71
2022/02/05 07:22:36;;;;;;;4.70;2.15;;;;;;;;;;4984136;28;20027;-72
2022/02/05 07:30:22;;;;;;;5.80;2.40;;;;;;;;;;4986024;28;20076;-71
2022/02/05 07:32:48;;;;;;;4.25;2.28;;;;;;;;;;4987678;28;20033;-72
2022/02/05 07:35:14;;;;;;;4.38;2.25;;;;;;;;;;4984946;28;20038;-71
2022/02/05 07:37:40;;;;;;;6.25;2.50;;;;;;;;;;4988625;28;20116;-72
2022/02/05 07:40:07;;;;;;;8.82;2.35;;;;;;;;;;4988809;28;20047;-72
2022/02/05 07:42:33;;;;;;;4.70;2.08;;;;;;;;;;4989774;28;20027;-72
2022/02/05 07:44:59;;;;;;;6.50;2.88;;;;;;;;;;4993785;28;20026;-72
2022/02/05 07:47:28;;;;;;;5.63;2.30;;;;;;;;;;4990203;28;20133;-72
2022/02/05 07:49:54;;;;;;;4.80;2.38;;;;;;;;;;4993604;28;20032;-72
2022/02/05 07:52:20;;;;;;;4.70;2.22;;;;;;;;;;4988144;28;20034;-71
2022/02/05 07:54:46;;;;;;;3.40;1.80;;;;;;;;;;4983806;28;20381;-71
2022/02/05 07:57:12;;;;;;;4.30;2.00;;;;;;;;;;4993117;28;20039;-71
2022/02/05 07:59:40;;;;;;;4.57;2.40;;;;;;;;;;4992382;28;20066;-72
2022/02/05 08:02:07;;;;;;;4.68;2.45;;;;;;;;;;4986206;28;20121;-72
2022/02/05 08:04:33;;;;;;;8.30;2.60;;;;;;;;;;4991465;28;20037;-72
2022/02/05 08:07:01;;;;;;;4.63;2.35;;;;;;;;;;4992574;28;20165;-72
2022/02/05 08:09:46;;;;;;;3.47;2.25;;;;;;;;;;4996049;28;20113;-72
2022/02/05 08:12:14;;;;;;;4.97;2.40;;;;;;;;;;4986656;28;20055;-71
2022/02/05 08:14:46;;;;;;;5.72;2.53;;;;;;;;;;4985246;28;20116;-72
2022/02/05 08:17:27;;;;;;;11.27;2.70;;;;;;;;;;4989452;28;20027;-72
2022/02/05 08:19:54;;;;;;;4.63;2.40;;;;;;;;;;4995631;28;20023;-72
2022/02/05 08:22:20;;;;;;;7.75;3.15;;;;;;;;;;4988317;28;20029;-72
2022/02/05 08:24:46;;;;;;;11.73;2.90;;;;;;;;;;4985511;28;20035;-72
2022/02/05 08:27:13;;;;;;;6.22;2.50;;;;;;;;;;4997958;28;20122;-72
2022/02/05 08:29:46;;;;;;;7.93;2.47;;;;;;;;;;4989162;28;20030;-72
2022/02/05 08:32:12;;;;;;;5.40;2.47;;;;;;;;;;4988815;28;20033;-72
2022/02/05 08:34:38;;;;;;;19.17;3.53;;;;;;;;;;4988723;28;20085;-70
2022/02/05 08:37:04;;;;;;;5.70;2.38;;;;;;;;;;4983089;28;20121;-71
2022/02/05 08:39:30;;;;;;;7.18;2.85;;;;;;;;;;4988462;28;20038;-72
2022/02/05 08:41:56;;;;;;;9.18;3.63;;;;;;;;;;4968887;28;20497;-72
2022/02/05 08:44:23;;;;;;;7.22;2.58;;;;;;;;;;4983835;28;20366;-73
2022/02/05 08:46:49;;;;;;;6.18;2.30;;;;;;;;;;4981185;28;20073;-72
2022/02/05 08:49:16;;;;;;;7.50;2.58;;;;;;;;;;4981506;28;20038;-72
2022/02/05 08:51:42;;;;;;;10.25;2.83;;;;;;;;;;4996473;28;20125;-73
2022/02/05 08:54:08;;;;;;;6.93;3.05;;;;;;;;;;4980614;28;20469;-71
2022/02/05 08:56:34;;;;;;;4.13;2.38;;;;;;;;;;4981274;28;20042;-72
2022/02/05 08:59:02;;;;;;;6.10;2.55;;;;;;;;;;4980406;28;20030;-71
2022/02/05 09:01:37;;;;;;;8.13;2.70;;;;;;;;;;4981043;28;20052;-71
2022/02/05 09:04:10;;;;;;;3.97;2.70;;;;;;;;;;4976637;28;20030;-71
2022/02/05 09:06:40;;;;;;;12.13;3.08;;;;;;;;;;4977345;28;20097;-72
2022/02/05 09:09:15;;;;;;;10.38;2.80;;;;;;;;;;4979168;28;20066;-71
2022/02/05 09:11:54;;;;;;;6.55;2.90;;;;;;;;;;4979782;28;20125;-72
2022/02/05 09:16:56;;;;;;;8.07;2.80;;;;;;;;;;4980799;28;20033;-72
2022/02/05 09:19:22;;;;;;;9.77;3.65;;;;;;;;;;4981226;28;20039;-72
2022/02/05 09:21:48;;;;;;;6.28;2.53;;;;;;;;;;4982288;28;20033;-72
2022/02/05 09:24:14;;;;;;;10.90;3.00;;;;;;;;;;4980333;28;20033;-72
2022/02/05 09:26:44;;;;;;;8.73;3.10;;;;;;;;;;4980558;28;20402;-71
2022/02/05 09:29:22;;;;;;;4.63;2.70;;;;;;;;;;4981561;28;20022;-71
2022/02/05 09:31:49;;;;;;;7.53;2.90;;;;;;;;;;4993894;28;20112;-71
2022/02/05 09:34:16;;;;;;;7.78;3.25;;;;;;;;;;4981514;28;20062;-71
2022/02/05 09:36:43;;;;;;;8.05;2.80;;;;;;;;;;4981030;28;20038;-71
2022/02/05 09:39:09;;;;;;;11.98;3.00;;;;;;;;;;4992649;28;20448;-70
2022/02/05 09:41:35;;;;;;;9.85;3.13;;;;;;;;;;4998163;28;20022;-72
2022/02/05 09:44:02;;;;;;;10.63;3.00;;;;;;;;;;4981582;28;20031;-71
2022/02/05 09:46:28;;;;;;;7.30;3.15;;;;;;;;;;4983978;28;20465;-71
2022/02/05 09:48:55;;;;;;;9.40;2.83;;;;;;;;;;4981008;28;20420;-71
2022/02/05 09:51:29;;;;;;;11.60;3.40;;;;;;;;;;4979136;28;20031;-71
2022/02/05 09:53:56;;;;;;;6.78;3.03;;;;;;;;;;4981402;28;20461;-71
2022/02/05 09:56:24;;;;;;;11.88;3.22;;;;;;;;;;4982014;28;20030;-71
2022/02/05 09:58:50;;;;;;;9.85;3.20;;;;;;;;;;4978589;28;20030;-70
2022/02/05 10:01:23;;;;;;;13.15;3.50;;;;;;;;;;4994225;28;20860;-72
2022/02/05 10:03:50;;;;;;;15.07;3.72;;;;;;;;;;4979660;28;20125;-72
2022/02/05 10:06:19;;;;;;;10.88;4.13;;;;;;;;;;4980698;28;20049;-72
2022/02/05 10:09:21;;;;;;;8.95;3.47;;;;;;;;;;4977592;28;20033;-71
2022/02/05 10:11:48;;;;;;;10.05;3.47;;;;;;;;;;5015890;28;20401;-71
2022/02/05 10:14:15;;;;;;;16.58;3.95;;;;;;;;;;4985471;28;20545;-71
2022/02/05 10:16:41;;;;;;;17.85;3.88;;;;;;;;;;4980936;28;20546;-72
2022/02/05 10:19:07;;;;;;;16.80;3.58;;;;;;;;;;4982243;28;20067;-70
2022/02/05 10:21:34;;;;;;;15.52;3.95;;;;;;;;;;4985779;28;20472;-71
2022/02/05 10:24:06;;;;;;;16.75;3.40;;;;;;;;;;4980450;28;20054;-72
2022/02/05 10:26:32;;;;;;;10.35;3.15;;;;;;;;;;4982951;28;20121;-72
2022/02/05 10:29:02;;;;;;;14.00;3.78;;;;;;;;;;4982633;28;20422;-72
2022/02/05 10:31:30;;;;;;;10.40;3.70;;;;;;;;;;4981863;28;20035;-72
2022/02/05 10:34:15;;;;;;;12.13;4.38;;;;;;;;;;4984565;28;20037;-71
2022/02/05 10:36:43;;;;;;;13.03;4.80;;;;;;;;;;4983160;28;20577;-71
2022/02/05 10:39:30;;;;;;;14.05;3.90;;;;;;;;;;4983589;28;20294;-70
2022/02/05 10:44:41;;;;;;;12.38;4.20;;;;;;;;;;4985969;28;20449;-72
2022/02/05 10:47:07;;;;;;;11.68;4.10;;;;;;;;;;4983507;28;20018;-70
2022/02/05 10:49:37;;;;;;;17.33;5.05;;;;;;;;;;4994527;28;20280;-71
2022/02/05 10:52:03;;;;;;;16.55;4.15;;;;;;;;;;4982636;28;20469;-70
2022/02/05 10:54:44;;;;;;;14.85;3.75;;;;;;;;;;4983700;28;20081;-71
2022/02/05 10:57:18;;;;;;;19.48;5.10;;;;;;;;;;4984385;28;20034;-71
2022/02/05 11:00:10;;;;;;;17.15;3.95;;;;;;;;;;4980403;28;20041;-71
2022/02/05 11:05:34;;;;;;;12.57;4.10;;;;;;;;;;4983693;28;20042;-72
2022/02/05 11:08:00;;;;;;;12.57;3.58;;;;;;;;;;4985496;28;20070;-71
2022/02/05 11:13:21;;;;;;;13.93;6.80;;;;;;;;;;4984846;28;20483;-71
2022/02/05 11:18:38;;;;;;;19.85;6.43;;;;;;;;;;4982507;28;20034;-72
2022/02/05 11:21:04;;;;;;;18.65;7.28;;;;;;;;;;4980498;28;20026;-72
2022/02/05 11:23:32;;;;;;;13.88;4.40;;;;;;;;;;4982455;28;20622;-71
2022/02/05 11:25:59;;;;;;;13.15;4.32;;;;;;;;;;4981102;28;20034;-71
2022/02/05 11:28:44;;;;;;;20.75;6.53;;;;;;;;;;4984233;28;20034;-69
2022/02/05 11:31:15;;;;;;;13.00;5.15;;;;;;;;;;4981513;28;20044;-71
2022/02/05 11:33:42;;;;;;;10.93;3.42;;;;;;;;;;4980621;28;20105;-71
2022/02/05 11:38:42;;;;;;;23.92;5.97;;;;;;;;;;4982565;28;20570;-71
2022/02/05 11:41:23;;;;;;;20.88;6.45;;;;;;;;;;4981847;28;20042;-68
2022/02/05 11:44:09;;;;;;;26.55;12.00;;;;;;;;;;4994907;28;20035;-70
2022/02/05 11:46:35;;;;;;;;;;;;;;;;;;4978706;28;20035;-73
2022/02/05 11:49:05;;;;;;;;;;;;;;;;;;4981898;28;20374;-72
2022/02/05 11:51:43;;;;;;;12.60;5.45;;;;;;;;;;4982129;28;19925;-71
2022/02/05 11:54:15;;;;;;;17.00;6.10;;;;;;;;;;4982087;28;20034;-70
2022/02/05 11:59:18;;;;;;;15.60;6.95;;;;;;;;;;4984894;28;20030;-70
2022/02/05 12:01:47;;;;;;;12.20;4.53;;;;;;;;;;4997650;28;20030;-71
2022/02/05 12:04:23;;;;;;;13.40;5.10;;;;;;;;;;4984037;28;20034;-71
2022/02/05 12:06:50;;;;;;;17.45;6.13;;;;;;;;;;4982951;28;20036;-71
2022/02/05 12:09:35;;;;;;;15.43;5.00;;;;;;;;;;4980284;28;20140;-71
2022/02/05 12:12:19;;;;;;;17.52;5.32;;;;;;;;;;4984060;28;20065;-72
2022/02/05 12:15:04;;;;;;;12.68;6.13;;;;;;;;;;4982288;28;20030;-70
2022/02/05 12:17:39;;;;;;;17.85;8.25;;;;;;;;;;4982866;28;20054;-72
2022/02/05 12:20:10;;;;;;;15.93;5.90;;;;;;;;;;4980636;28;20037;-72
2022/02/05 12:22:55;;;;;;;14.35;4.82;;;;;;;;;;4982857;28;20026;-71
2022/02/05 12:25:23;;;;;;;11.52;6.00;;;;;;;;;;4981585;28;20031;-71
2022/02/05 12:27:49;;;;;;;11.40;4.95;;;;;;;;;;4983229;28;20061;-72
2022/02/05 12:30:29;;;;;;;11.30;4.22;;;;;;;;;;4984889;28;20038;-72
2022/02/05 12:32:55;;;;;;;14.82;3.88;;;;;;;;;;4980650;28;20170;-71
2022/02/05 12:35:21;;;;;;;9.68;3.60;;;;;;;;;;4983057;28;20096;-72
2022/02/05 12:37:47;;;;;;;11.80;4.07;;;;;;;;;;4982981;28;20389;-71
2022/02/05 12:40:13;;;;;;;10.77;4.32;;;;;;;;;;4981209;28;20038;-71
2022/02/05 12:42:41;;;;;;;12.15;4.03;;;;;;;;;;4979825;28;20080;-72
2022/02/05 12:45:09;;;;;;;17.17;4.70;;;;;;;;;;4979694;28;20109;-71
2022/02/05 12:47:41;;;;;;;16.25;5.28;;;;;;;;;;4983494;28;20057;-71
2022/02/05 12:50:10;;;;;;;14.13;4.30;;;;;;;;;;4980690;28;20084;-71
2022/02/05 12:52:37;;;;;;;7.65;4.28;;;;;;;;;;4980119;28;20404;-72
2022/02/05 12:55:04;;;;;;;10.48;4.47;;;;;;;;;;4996890;28;20034;-72
2022/02/05 12:57:31;;;;;;;9.70;4.13;;;;;;;;;;4997138;28;20041;-72
2022/02/05 13:00:07;;;;;;;15.23;4.72;;;;;;;;;;4981809;28;20116;-72
2022/02/05 13:02:33;;;;;;;10.40;3.67;;;;;;;;;;4982230;28;20037;-72
2022/02/05 13:05:00;;;;;;;11.52;4.32;;;;;;;;;;4979476;28;20060;-72
2022/02/05 13:07:27;;;;;;;8.90;3.28;;;;;;;;;;4980631;28;20048;-72
2022/02/05 13:09:57;;;;;;;11.23;3.05;;;;;;;;;;4983128;28;20038;-72
2022/02/05 13:12:28;;;;;;;8.63;2.95;;;;;;;;;;4981140;28;20519;-72
2022/02/05 13:15:08;;;;;;;13.70;3.75;;;;;;;;;;4981108;28;20034;-73
2022/02/05 13:17:52;;;;;;;10.90;2.90;;;;;;;;;;4984295;28;20112;-72
2022/02/05 13:25:47;;;;;;;12.15;4.38;;;;;;;;;;4982293;28;20049;-72
2022/02/05 13:36:21;;;;;;;19.98;9.55;;;;;;;;;;4981810;28;20085;-72
2022/02/05 13:41:35;;;;;;;16.23;7.20;;;;;;;;;;4981299;28;20096;-72
2022/02/05 13:44:01;;;;;;;37.90;20.70;;;;;;;;;;4977569;28;20030;-72
2022/02/05 13:46:27;;;;;;;18.75;10.38;;;;;;;;;;4981319;28;20026;-72
2022/02/05 13:48:53;;;;;;;29.40;16.60;;;;;;;;;;4976610;28;20037;-72
2022/02/05 13:51:20;;;;;;;25.85;13.55;;;;;;;;;;4980030;28;20038;-72
2022/02/05 13:53:50;;;;;;;19.75;14.13;;;;;;;;;;4978425;28;20086;-72
2022/02/05 13:56:17;;;;;;;35.05;21.35;;;;;;;;;;4981322;28;20026;-72
2022/02/05 13:58:43;;;;;;;15.07;8.63;;;;;;;;;;4979079;28;20019;-72
2022/02/05 14:01:10;;;;;;;12.43;7.32;;;;;;;;;;4980099;28;20037;-72
2022/02/05 14:03:37;;;;;;;13.93;5.82;;;;;;;;;;4981041;28;20029;-72
2022/02/05 14:06:04;;;;;;;8.93;5.57;;;;;;;;;;4997191;28;20495;-71
2022/02/05 14:08:34;;;;;;;11.77;4.93;;;;;;;;;;4981356;28;20033;-72
2022/02/05 14:11:01;;;;;;;14.82;7.97;;;;;;;;;;4983241;28;20157;-71
2022/02/05 14:13:28;;;;;;;15.43;6.75;;;;;;;;;;4980678;28;21342;-72
2022/02/05 14:15:56;;;;;;;12.88;8.52;;;;;;;;;;4982410;28;20104;-72
2022/02/05 14:18:23;;;;;;;16.27;9.98;;;;;;;;;;4982645;28;20030;-72
2022/02/05 14:20:49;;;;;;;11.05;5.95;;;;;;;;;;4983580;28;20037;-72
2022/02/05 14:23:17;;;;;;;11.13;6.30;;;;;;;;;;4982908;28;20030;-72
2022/02/05 14:25:48;;;;;;;20.63;7.72;;;;;;;;;;4983198;28;20045;-72
2022/02/05 14:28:27;;;;;;;11.38;5.00;;;;;;;;;;4982027;28;20035;-72
2022/02/05 14:31:44;;;;;;;10.63;4.85;;;;;;;;;;4981931;28;20026;-72
2022/02/05 14:42:04;;;;;;;14.57;10.57;;;;;;;;;;4980142;28;20041;-72
2022/02/05 14:44:30;;;;;;;30.25;17.65;;;;;;;;;;4982770;28;20034;-72
2022/02/05 14:46:57;;;;;;;17.08;10.30;;;;;;;;;;4983856;28;20145;-72
2022/02/05 14:49:23;;;;;;;18.67;10.63;;;;;;;;;;4983310;28;20201;-73
2022/02/05 14:51:49;;;;;;;12.65;7.72;;;;;;;;;;4980680;28;20062;-72
2022/02/05 14:54:15;;;;;;;11.95;6.50;;;;;;;;;;4983595;28;20532;-72
2022/02/05 14:56:42;;;;;;;8.48;3.90;;;;;;;;;;4974966;28;20792;-72
2022/02/05 14:59:08;;;;;;;10.73;4.30;;;;;;;;;;4997247;28;20038;-72
2022/02/05 15:01:35;;;;;;;9.77;5.70;;;;;;;;;;4984321;28;20031;-72
2022/02/05 15:04:01;;;;;;;8.32;3.90;;;;;;;;;;4980782;28;20026;-72
2022/02/05 15:06:30;;;;;;;12.65;8.02;;;;;;;;;;5000685;28;20117;-72
2022/02/05 15:08:57;;;;;;;24.55;14.85;;;;;;;;;;4977164;28;20058;-72
2022/02/05 15:11:25;;;;;;;34.72;23.45;;;;;;;;;;4980567;28;20051;-72
2022/02/05 15:13:52;;;;;;;24.60;17.40;;;;;;;;;;4996047;28;20037;-72
2022/02/05 15:16:18;;;;;;;14.00;9.45;;;;;;;;;;4984684;28;20058;-72
2022/02/05 15:18:57;;;;;;;12.60;7.50;;;;;;;;;;4985631;28;20038;-72
2022/02/05 15:21:32;;;;;;;12.68;8.05;;;;;;;;;;4986682;28;20061;-72
2022/02/05 15:23:59;;;;;;;14.13;8.35;;;;;;;;;;4984430;28;20056;-72
2022/02/05 15:26:27;;;;;;;12.38;8.20;;;;;;;;;;4987737;28;20384;-72
2022/02/05 15:28:54;;;;;;;21.30;8.18;;;;;;;;;;4982097;28;20026;-72
2022/02/05 15:31:20;;;;;;;13.93;8.75;;;;;;;;;;4985630;28;20034;-72
2022/02/05 15:33:49;;;;;;;11.75;6.65;;;;;;;;;;4982645;28;20116;-73
2022/02/05 15:36:20;;;;;;;15.43;5.28;;;;;;;;;;4981201;28;20062;-72
2022/02/05 15:44:03;;;;;;;16.92;5.70;;;;;;;;;;4986636;28;20042;-72
2022/02/05 15:46:29;;;;;;;15.30;5.80;;;;;;;;;;4985221;28;20030;-72
2022/02/05 15:48:55;;;;;;;11.77;5.38;;;;;;;;;;4984572;28;20030;-73
2022/02/05 15:51:25;;;;;;;14.75;6.13;;;;;;;;;;4986537;28;20038;-72
2022/02/05 15:53:56;;;;;;;9.38;3.70;;;;;;;;;;4985725;28;20505;-73
2022/02/05 15:59:10;;;;;;;30.27;16.55;;;;;;;;;;4986234;28;20041;-72
2022/02/05 16:01:37;;;;;;;51.80;34.60;;;;;;;;;;4983653;28;20038;-72
2022/02/05 16:04:03;;;;;;;90.65;63.17;;;;;;;;;;4985455;28;20370;-72
2022/02/05 16:06:29;;;;;;;98.13;63.72;;;;;;;;;;4983434;28;20038;-72
2022/02/05 16:08:56;;;;;;;92.88;56.55;;;;;;;;;;4980749;28;20027;-72
2022/02/05 16:11:24;;;;;;;104.65;57.40;;;;;;;;;;4983927;28;20050;-72
2022/02/05 16:13:51;;;;;;;147.07;92.55;;;;;;;;;;4997087;28;20200;-72
2022/02/05 16:16:18;;;;;;;159.15;96.78;;;;;;;;;;4983560;28;20038;-72
2022/02/05 16:18:44;;;;;;;211.20;126.18;;;;;;;;;;4981083;28;20444;-72
2022/02/05 16:21:10;;;;;;;175.05;99.95;;;;;;;;;;4982277;28;20056;-73
2022/02/05 16:23:36;;;;;;;20.23;12.05;;;;;;;;;;4996717;28;20446;-73
2022/02/05 16:26:02;;;;;;;63.25;34.35;;;;;;;;;;4982393;28;20027;-72
2022/02/05 16:28:32;;;;;;;47.55;26.00;;;;;;;;;;4984642;28;20038;-72
2022/02/05 16:30:59;;;;;;;64.25;46.53;;;;;;;;;;4984107;28;20550;-73
2022/02/05 16:33:28;;;;;;;69.10;46.72;;;;;;;;;;4986737;28;20034;-72
2022/02/05 16:36:18;;;;;;;38.33;23.15;;;;;;;;;;4984160;28;20048;-72
2022/02/05 16:38:46;;;;;;;65.82;30.95;;;;;;;;;;4986421;28;20041;-72
2022/02/05 16:41:12;;;;;;;71.35;38.72;;;;;;;;;;4983236;28;20050;-71
2022/02/05 16:43:40;;;;;;;9.55;5.70;;;;;;;;;;4983985;28;20027;-71
2022/02/05 16:46:10;;;;;;;16.20;9.73;;;;;;;;;;4987683;28;20065;-72
2022/02/05 16:48:38;;;;;;;22.10;11.00;;;;;;;;;;4985173;28;20062;-72
2022/02/05 16:51:07;;;;;;;18.65;11.18;;;;;;;;;;4985148;28;20027;-71
2022/02/05 16:53:33;;;;;;;9.30;5.63;;;;;;;;;;4982296;28;20546;-72
2022/02/05 16:55:59;;;;;;;10.05;5.55;;;;;;;;;;4982595;28;20037;-71
2022/02/05 16:58:25;;;;;;;8.50;4.47;;;;;;;;;;4983983;28;20988;-71
2022/02/05 17:00:52;;;;;;;7.28;3.45;;;;;;;;;;4985473;28;20099;-71
2022/02/05 17:03:19;;;;;;;10.38;4.88;;;;;;;;;;4999385;28;20236;-72
2022/02/05 17:05:45;;;;;;;16.27;5.00;;;;;;;;;;4984063;28;20619;-72
2022/02/05 17:08:13;;;;;;;8.55;5.13;;;;;;;;;;4983881;28;20038;-72
2022/02/05 17:10:39;;;;;;;12.82;5.55;;;;;;;;;;4984247;28;20042;-71
2022/02/05 17:13:06;;;;;;;19.38;10.88;;;;;;;;;;4983129;28;20031;-71
2022/02/05 17:15:33;;;;;;;11.60;6.40;;;;;;;;;;4999976;28;20030;-72
2022/02/05 17:18:23;;;;;;;13.80;5.28;;;;;;;;;;4975872;28;20505;-71
2022/02/05 17:20:53;;;;;;;13.02;6.85;;;;;;;;;;4978023;28;20496;-72
2022/02/05 17:23:23;;;;;;;21.02;12.95;;;;;;;;;;4997349;28;20048;-71
2022/02/05 17:25:49;;;;;;;12.13;4.82;;;;;;;;;;4982560;28;20054;-71
2022/02/05 17:28:15;;;;;;;12.50;4.32;;;;;;;;;;4983241;28;20440;-72
2022/02/05 17:30:42;;;;;;;16.73;4.50;;;;;;;;;;4985620;28;20049;-72
2022/02/05 17:33:10;;;;;;;16.33;5.13;;;;;;;;;;5001106;28;20180;-72
2022/02/05 17:35:40;;;;;;;32.38;16.50;;;;;;;;;;4997023;28;20404;-71